sensor_id;sensor_type;location;lat;lon;timestamp;pressure;altitude;pressure_sealevel;temperature;humidity
76108;BME280;64834;52.516;10.528;2023-06-14T00:02:03;101148.31;;;15.72;58.03
76108;BME280;64834;52.516;10.528;2023-06-14T00:04:29;101143.03;;;15.72;57.60
76108;BME280;64834;52.516;10.528;2023-06-14T00:06:55;101143.84;;;15.71;57.69
76108;BME280;64834;52.516;10.528;2023-06-14T00:09:22;101143.94;;;15.73;57.61
76108;BME280;64834;52.516;10.528;2023-06-14T00:11:47;101146.88;;;15.59;57.69
76108;BME280;64834;52.516;10.528;2023-06-14T00:14:13;101148.81;;;15.63;57.36
76108;BME280;64834;52.516;10.528;2023-06-14T00:16:40;101146.88;;;15.59;57.82
76108;BME280;64834;52.516;10.528;2023-06-14T00:19:10;101148.53;;;15.57;57.79
76108;BME280;64834;52.516;10.528;2023-06-14T00:21:36;101146.66;;;15.55;57.55
76108;BME280;64834;52.516;10.528;2023-06-14T00:24:03;101151.03;;;15.54;57.64
76108;BME280;64834;52.516;10.528;2023-06-14T00:26:29;101145.13;;;15.60;57.12
76108;BME280;64834;52.516;10.528;2023-06-14T00:28:54;101155.16;;;15.48;57.87
76108;BME280;64834;52.516;10.528;2023-06-14T00:31:20;101159.97;;;15.37;58.16
76108;BME280;64834;52.516;10.528;2023-06-14T00:33:45;101151.56;;;15.26;58.42
76108;BME280;64834;52.516;10.528;2023-06-14T00:36:13;101153.72;;;15.35;57.92
76108;BME280;64834;52.516;10.528;2023-06-14T00:38:38;101155.19;;;15.28;57.98
76108;BME280;64834;52.516;10.528;2023-06-14T00:41:04;101156.72;;;15.23;58.28
76108;BME280;64834;52.516;10.528;2023-06-14T00:43:29;101164.16;;;15.13;58.76
76108;BME280;64834;52.516;10.528;2023-06-14T00:45:55;101158.31;;;15.00;59.44
76108;BME280;64834;52.516;10.528;2023-06-14T00:48:20;101153.66;;;14.95;59.35
76108;BME280;64834;52.516;10.528;2023-06-14T00:50:46;101158.53;;;14.86;60.19
76108;BME280;64834;52.516;10.528;2023-06-14T00:53:13;101162.34;;;14.92;59.92
76108;BME280;64834;52.516;10.528;2023-06-14T00:55:43;101161.13;;;14.84;59.64
76108;BME280;64834;52.516;10.528;2023-06-14T00:58:08;101152.66;;;14.72;60.44
76108;BME280;64834;52.516;10.528;2023-06-14T01:00:34;101163.03;;;14.69;60.44
76108;BME280;64834;52.516;10.528;2023-06-14T01:03:00;101158.59;;;14.68;60.87
76108;BME280;64834;52.516;10.528;2023-06-14T01:05:26;101165.09;;;14.56;61.13
76108;BME280;64834;52.516;10.528;2023-06-14T01:08:20;101160.88;;;14.60;61.02
76108;BME280;64834;52.516;10.528;2023-06-14T01:10:53;101165.38;;;14.63;60.85
76108;BME280;64834;52.516;10.528;2023-06-14T01:13:29;101162.09;;;14.49;61.38
76108;BME280;64834;52.516;10.528;2023-06-14T01:15:57;101165.91;;;14.55;61.35
76108;BME280;64834;52.516;10.528;2023-06-14T01:18:23;101176.31;;;14.35;62.14
76108;BME280;64834;52.516;10.528;2023-06-14T01:20:49;101173.91;;;14.21;62.56
76108;BME280;64834;52.516;10.528;2023-06-14T01:23:19;101171.06;;;14.17;63.07
76108;BME280;64834;52.516;10.528;2023-06-14T01:25:45;101169.84;;;14.10;63.51
76108;BME280;64834;52.516;10.528;2023-06-14T01:28:13;101173.69;;;13.99;63.77
76108;BME280;64834;52.516;10.528;2023-06-14T01:30:43;101169.50;;;14.02;63.39
76108;BME280;64834;52.516;10.528;2023-06-14T01:33:18;101173.38;;;14.11;63.17
76108;BME280;64834;52.516;10.528;2023-06-14T01:35:46;101174.94;;;14.07;63.39
76108;BME280;64834;52.516;10.528;2023-06-14T01:38:17;101179.53;;;13.93;64.16
76108;BME280;64834;52.516;10.528;2023-06-14T01:40:44;101170.63;;;13.90;64.26
76108;BME280;64834;52.516;10.528;2023-06-14T01:43:11;101177.31;;;13.83;64.79
76108;BME280;64834;52.516;10.528;2023-06-14T01:45:40;101174.03;;;13.89;64.41
76108;BME280;64834;52.516;10.528;2023-06-14T01:48:05;101171.50;;;13.72;65.14
76108;BME280;64834;52.516;10.528;2023-06-14T01:50:31;101173.88;;;13.68;64.99
76108;BME280;64834;52.516;10.528;2023-06-14T01:52:57;101183.50;;;13.67;65.36
76108;BME280;64834;52.516;10.528;2023-06-14T01:55:22;101175.94;;;13.57;65.74
76108;BME280;64834;52.516;10.528;2023-06-14T01:57:50;101173.25;;;13.56;65.99
76108;BME280;64834;52.516;10.528;2023-06-14T02:00:16;101172.16;;;13.68;65.21
76108;BME280;64834;52.516;10.528;2023-06-14T02:02:43;101174.25;;;13.58;65.79
76108;BME280;64834;52.516;10.528;2023-06-14T02:05:08;101179.94;;;13.49;66.38
76108;BME280;64834;52.516;10.528;2023-06-14T02:07:34;101177.94;;;13.45;66.42
76108;BME280;64834;52.516;10.528;2023-06-14T02:09:59;101177.75;;;13.40;66.75
76108;BME280;64834;52.516;10.528;2023-06-14T02:12:24;101175.25;;;13.43;66.60
76108;BME280;64834;52.516;10.528;2023-06-14T02:14:50;101179.22;;;13.35;67.37
76108;BME280;64834;52.516;10.528;2023-06-14T02:17:15;101176.47;;;13.50;66.38
76108;BME280;64834;52.516;10.528;2023-06-14T02:19:41;101173.78;;;13.32;67.09
76108;BME280;64834;52.516;10.528;2023-06-14T02:22:07;101174.34;;;13.43;66.70
76108;BME280;64834;52.516;10.528;2023-06-14T02:24:32;101175.03;;;13.39;67.27
76108;BME280;64834;52.516;10.528;2023-06-14T02:26:58;101176.53;;;13.34;67.03
76108;BME280;64834;52.516;10.528;2023-06-14T02:29:23;101176.34;;;13.31;66.72
76108;BME280;64834;52.516;10.528;2023-06-14T02:31:48;101185.72;;;13.26;67.17
76108;BME280;64834;52.516;10.528;2023-06-14T02:34:14;101185.56;;;13.22;67.43
76108;BME280;64834;52.516;10.528;2023-06-14T02:36:42;101191.03;;;13.11;67.73
76108;BME280;64834;52.516;10.528;2023-06-14T02:39:08;101188.56;;;12.98;68.42
76108;BME280;64834;52.516;10.528;2023-06-14T02:41:37;101183.22;;;12.80;68.95
76108;BME280;64834;52.516;10.528;2023-06-14T02:44:03;101183.97;;;12.77;69.73
76108;BME280;64834;52.516;10.528;2023-06-14T02:46:28;101184.13;;;12.64;70.03
76108;BME280;64834;52.516;10.528;2023-06-14T02:48:53;101185.53;;;12.57;70.30
76108;BME280;64834;52.516;10.528;2023-06-14T02:51:19;101190.59;;;12.54;70.50
76108;BME280;64834;52.516;10.528;2023-06-14T02:53:44;101188.50;;;12.49;71.04
76108;BME280;64834;52.516;10.528;2023-06-14T02:56:10;101191.81;;;12.45;71.13
76108;BME280;64834;52.516;10.528;2023-06-14T02:58:37;101188.09;;;12.41;71.59
76108;BME280;64834;52.516;10.528;2023-06-14T03:01:02;101189.63;;;12.68;70.35
76108;BME280;64834;52.516;10.528;2023-06-14T03:03:28;101198.47;;;12.54;70.94
76108;BME280;64834;52.516;10.528;2023-06-14T03:05:53;101200.34;;;12.57;70.50
76108;BME280;64834;52.516;10.528;2023-06-14T03:08:19;101204.69;;;12.56;70.75
76108;BME280;64834;52.516;10.528;2023-06-14T03:10:48;101205.81;;;12.76;70.24
76108;BME280;64834;52.516;10.528;2023-06-14T03:13:14;101210.63;;;12.68;69.87
76108;BME280;64834;52.516;10.528;2023-06-14T03:15:41;101211.78;;;12.57;70.38
76108;BME280;64834;52.516;10.528;2023-06-14T03:18:08;101221.59;;;12.61;70.60
76108;BME280;64834;52.516;10.528;2023-06-14T03:20:34;101220.47;;;12.73;70.06
76108;BME280;64834;52.516;10.528;2023-06-14T03:23:01;101221.31;;;12.72;70.07
76108;BME280;64834;52.516;10.528;2023-06-14T03:25:27;101226.03;;;12.62;70.68
76108;BME280;64834;52.516;10.528;2023-06-14T03:27:57;101222.47;;;12.46;71.48
76108;BME280;64834;52.516;10.528;2023-06-14T03:30:23;101222.72;;;12.50;71.01
76108;BME280;64834;52.516;10.528;2023-06-14T03:32:48;101231.91;;;12.42;71.17
76108;BME280;64834;52.516;10.528;2023-06-14T03:35:14;101227.28;;;12.38;71.44
76108;BME280;64834;52.516;10.528;2023-06-14T03:37:46;101235.81;;;12.34;71.60
76108;BME280;64834;52.516;10.528;2023-06-14T03:40:12;101239.88;;;12.29;72.19
76108;BME280;64834;52.516;10.528;2023-06-14T03:42:38;101244.75;;;12.37;71.53
76108;BME280;64834;52.516;10.528;2023-06-14T03:45:04;101252.50;;;12.51;71.49
76108;BME280;64834;52.516;10.528;2023-06-14T03:47:30;101256.41;;;12.42;71.44
76108;BME280;64834;52.516;10.528;2023-06-14T03:49:55;101260.50;;;12.37;71.75
76108;BME280;64834;52.516;10.528;2023-06-14T03:52:21;101252.09;;;12.28;72.00
76108;BME280;64834;52.516;10.528;2023-06-14T03:54:48;101261.03;;;12.32;72.77
76108;BME280;64834;52.516;10.528;2023-06-14T03:57:13;101262.22;;;12.37;72.75
76108;BME280;64834;52.516;10.528;2023-06-14T03:59:39;101267.03;;;13.22;70.11
76108;BME280;64834;52.516;10.528;2023-06-14T04:02:04;101268.22;;;14.30;65.52
76108;BME280;64834;52.516;10.528;2023-06-14T04:04:30;101254.84;;;15.16;62.20
76108;BME280;64834;52.516;10.528;2023-06-14T04:06:56;101263.91;;;15.61;59.91
76108;BME280;64834;52.516;10.528;2023-06-14T04:09:24;101263.31;;;16.28;58.50
76108;BME280;64834;52.516;10.528;2023-06-14T04:11:51;101259.69;;;16.69;56.29
76108;BME280;64834;52.516;10.528;2023-06-14T04:14:18;101264.84;;;16.66;56.01
76108;BME280;64834;52.516;10.528;2023-06-14T04:16:44;101260.50;;;16.46;56.49
76108;BME280;64834;52.516;10.528;2023-06-14T04:19:09;101261.00;;;16.79;55.90
76108;BME280;64834;52.516;10.528;2023-06-14T04:21:34;101269.22;;;17.33;54.04
76108;BME280;64834;52.516;10.528;2023-06-14T04:24:00;101259.28;;;17.50;53.84
76108;BME280;64834;52.516;10.528;2023-06-14T04:26:27;101257.06;;;17.38;53.41
76108;BME280;64834;52.516;10.528;2023-06-14T04:28:58;101261.94;;;17.74;53.22
76108;BME280;64834;52.516;10.528;2023-06-14T04:31:27;101258.44;;;18.00;52.44
76108;BME280;64834;52.516;10.528;2023-06-14T04:33:54;101266.91;;;18.16;51.05
76108;BME280;64834;52.516;10.528;2023-06-14T04:36:19;101263.97;;;17.59;52.72
76108;BME280;64834;52.516;10.528;2023-06-14T04:41:34;101269.81;;;17.48;53.86
76108;BME280;64834;52.516;10.528;2023-06-14T04:44:00;101272.72;;;17.32;53.99
76108;BME280;64834;52.516;10.528;2023-06-14T04:46:29;101265.09;;;17.65;53.85
76108;BME280;64834;52.516;10.528;2023-06-14T04:48:55;101272.31;;;17.21;54.94
76108;BME280;64834;52.516;10.528;2023-06-14T04:51:20;101269.69;;;17.45;54.57
76108;BME280;64834;52.516;10.528;2023-06-14T04:53:56;101276.47;;;16.70;57.04
76108;BME280;64834;52.516;10.528;2023-06-14T04:56:24;101275.28;;;16.63;56.85
76108;BME280;64834;52.516;10.528;2023-06-14T04:58:54;101273.91;;;16.09;59.70
76108;BME280;64834;52.516;10.528;2023-06-14T05:01:21;101275.25;;;15.78;61.11
76108;BME280;64834;52.516;10.528;2023-06-14T05:03:48;101276.50;;;15.48;62.22
76108;BME280;64834;52.516;10.528;2023-06-14T05:06:15;101287.03;;;15.28;63.30
76108;BME280;64834;52.516;10.528;2023-06-14T05:08:41;101275.34;;;15.04;63.83
76108;BME280;64834;52.516;10.528;2023-06-14T05:11:06;101285.72;;;15.01;64.65
76108;BME280;64834;52.516;10.528;2023-06-14T05:13:31;101290.81;;;14.96;65.08
76108;BME280;64834;52.516;10.528;2023-06-14T05:15:58;101295.97;;;14.95;64.59
76108;BME280;64834;52.516;10.528;2023-06-14T05:18:24;101295.88;;;15.11;64.34
76108;BME280;64834;52.516;10.528;2023-06-14T05:20:50;101291.63;;;15.15;64.50
76108;BME280;64834;52.516;10.528;2023-06-14T05:23:16;101286.66;;;15.21;64.11
76108;BME280;64834;52.516;10.528;2023-06-14T05:25:43;101287.38;;;15.17;64.33
76108;BME280;64834;52.516;10.528;2023-06-14T05:28:08;101289.50;;;15.25;64.09
76108;BME280;64834;52.516;10.528;2023-06-14T05:30:34;101288.91;;;15.31;63.92
76108;BME280;64834;52.516;10.528;2023-06-14T05:32:59;101300.78;;;15.41;63.43
76108;BME280;64834;52.516;10.528;2023-06-14T05:35:25;101293.16;;;15.47;62.97
76108;BME280;64834;52.516;10.528;2023-06-14T05:37:52;101297.38;;;15.43;63.68
76108;BME280;64834;52.516;10.528;2023-06-14T05:40:17;101293.28;;;15.50;63.16
76108;BME280;64834;52.516;10.528;2023-06-14T05:42:42;101295.34;;;15.57;63.03
76108;BME280;64834;52.516;10.528;2023-06-14T05:45:08;101294.75;;;15.62;62.51
76108;BME280;64834;52.516;10.528;2023-06-14T05:47:33;101299.41;;;15.68;61.82
76108;BME280;64834;52.516;10.528;2023-06-14T05:49:59;101299.69;;;15.74;62.36
76108;BME280;64834;52.516;10.528;2023-06-14T05:52:24;101302.16;;;15.71;62.26
76108;BME280;64834;52.516;10.528;2023-06-14T05:54:50;101302.81;;;15.85;62.42
76108;BME280;64834;52.516;10.528;2023-06-14T05:57:15;101301.19;;;15.88;61.14
76108;BME280;64834;52.516;10.528;2023-06-14T05:59:41;101305.19;;;16.00;61.48
76108;BME280;64834;52.516;10.528;2023-06-14T06:02:06;101307.06;;;16.02;60.86
76108;BME280;64834;52.516;10.528;2023-06-14T06:04:32;101319.13;;;16.16;62.02
76108;BME280;64834;52.516;10.528;2023-06-14T06:06:57;101315.97;;;16.25;60.94
76108;BME280;64834;52.516;10.528;2023-06-14T06:09:22;101308.09;;;16.27;60.64
76108;BME280;64834;52.516;10.528;2023-06-14T06:11:48;101312.00;;;16.35;60.32
76108;BME280;64834;52.516;10.528;2023-06-14T06:14:13;101316.88;;;16.46;60.26
76108;BME280;64834;52.516;10.528;2023-06-14T06:16:38;101321.84;;;16.60;59.90
76108;BME280;64834;52.516;10.528;2023-06-14T06:19:04;101321.59;;;16.75;59.14
76108;BME280;64834;52.516;10.528;2023-06-14T06:21:29;101327.56;;;16.91;59.42
76108;BME280;64834;52.516;10.528;2023-06-14T06:23:54;101320.19;;;17.05;59.00
76108;BME280;64834;52.516;10.528;2023-06-14T06:26:21;101320.13;;;17.04;58.76
76108;BME280;64834;52.516;10.528;2023-06-14T06:28:47;101326.00;;;17.19;57.98
76108;BME280;64834;52.516;10.528;2023-06-14T06:31:12;101316.78;;;17.54;57.04
76108;BME280;64834;52.516;10.528;2023-06-14T06:33:38;101322.81;;;17.74;56.41
76108;BME280;64834;52.516;10.528;2023-06-14T06:36:05;101322.09;;;18.03;55.11
76108;BME280;64834;52.516;10.528;2023-06-14T06:38:30;101324.66;;;18.00;54.36
76108;BME280;64834;52.516;10.528;2023-06-14T06:40:56;101319.19;;;17.96;53.63
76108;BME280;64834;52.516;10.528;2023-06-14T06:43:21;101333.00;;;18.37;52.82
76108;BME280;64834;52.516;10.528;2023-06-14T06:45:47;101328.53;;;18.36;51.78
76108;BME280;64834;52.516;10.528;2023-06-14T06:48:12;101333.50;;;18.52;51.72
76108;BME280;64834;52.516;10.528;2023-06-14T06:50:38;101336.53;;;18.90;50.56
76108;BME280;64834;52.516;10.528;2023-06-14T06:53:03;101336.31;;;18.56;50.96
76108;BME280;64834;52.516;10.528;2023-06-14T06:55:29;101342.34;;;18.78;50.68
76108;BME280;64834;52.516;10.528;2023-06-14T06:57:55;101348.44;;;18.75;50.07
76108;BME280;64834;52.516;10.528;2023-06-14T07:00:20;101342.59;;;18.85;50.21
76108;BME280;64834;52.516;10.528;2023-06-14T07:02:46;101343.28;;;19.07;49.22
76108;BME280;64834;52.516;10.528;2023-06-14T07:05:12;101344.06;;;19.04;48.80
76108;BME280;64834;52.516;10.528;2023-06-14T07:07:37;101341.47;;;19.34;47.83
76108;BME280;64834;52.516;10.528;2023-06-14T07:10:04;101340.41;;;19.29;47.62
76108;BME280;64834;52.516;10.528;2023-06-14T07:12:30;101343.25;;;19.62;47.59
76108;BME280;64834;52.516;10.528;2023-06-14T07:14:59;101347.47;;;20.19;46.20
76108;BME280;64834;52.516;10.528;2023-06-14T07:17:25;101347.91;;;19.71;45.49
76108;BME280;64834;52.516;10.528;2023-06-14T07:19:50;101353.22;;;19.71;46.88
76108;BME280;64834;52.516;10.528;2023-06-14T07:22:16;101345.56;;;19.82;45.54
76108;BME280;64834;52.516;10.528;2023-06-14T07:24:41;101348.22;;;20.13;45.44
76108;BME280;64834;52.516;10.528;2023-06-14T07:27:07;101347.34;;;19.83;45.85
76108;BME280;64834;52.516;10.528;2023-06-14T07:29:33;101344.00;;;19.90;46.94
76108;BME280;64834;52.516;10.528;2023-06-14T07:31:58;101344.13;;;20.59;45.88
76108;BME280;64834;52.516;10.528;2023-06-14T07:34:23;101341.19;;;20.85;44.28
76108;BME280;64834;52.516;10.528;2023-06-14T07:36:49;101335.13;;;20.90;44.29
76108;BME280;64834;52.516;10.528;2023-06-14T07:39:14;101334.13;;;21.24;43.35
76108;BME280;64834;52.516;10.528;2023-06-14T07:41:40;101346.06;;;21.02;44.32
76108;BME280;64834;52.516;10.528;2023-06-14T07:44:05;101340.91;;;21.10;44.46
76108;BME280;64834;52.516;10.528;2023-06-14T07:46:30;101341.88;;;21.12;43.91
76108;BME280;64834;52.516;10.528;2023-06-14T07:48:56;101339.97;;;21.46;43.67
76108;BME280;64834;52.516;10.528;2023-06-14T07:51:22;101331.13;;;21.47;43.08
76108;BME280;64834;52.516;10.528;2023-06-14T07:53:49;101343.34;;;21.37;42.00
76108;BME280;64834;52.516;10.528;2023-06-14T07:56:14;101330.13;;;21.42;41.76
76108;BME280;64834;52.516;10.528;2023-06-14T07:58:40;101334.06;;;21.20;43.27
76108;BME280;64834;52.516;10.528;2023-06-14T08:01:06;101333.53;;;21.78;42.92
76108;BME280;64834;52.516;10.528;2023-06-14T08:03:33;101329.94;;;21.34;44.50
76108;BME280;64834;52.516;10.528;2023-06-14T08:05:58;101334.81;;;21.53;42.02
76108;BME280;64834;52.516;10.528;2023-06-14T08:08:24;101328.88;;;21.27;41.57
76108;BME280;64834;52.516;10.528;2023-06-14T08:10:49;101324.16;;;21.14;42.10
76108;BME280;64834;52.516;10.528;2023-06-14T08:13:15;101330.41;;;21.99;41.58
76108;BME280;64834;52.516;10.528;2023-06-14T08:15:40;101324.50;;;22.14;40.64
76108;BME280;64834;52.516;10.528;2023-06-14T08:18:05;101319.03;;;22.08;39.52
76108;BME280;64834;52.516;10.528;2023-06-14T08:20:31;101324.94;;;22.39;39.88
76108;BME280;64834;52.516;10.528;2023-06-14T08:22:59;101324.00;;;22.35;39.57
76108;BME280;64834;52.516;10.528;2023-06-14T08:25:25;101319.59;;;22.90;39.21
76108;BME280;64834;52.516;10.528;2023-06-14T08:27:51;101326.13;;;22.56;39.91
76108;BME280;64834;52.516;10.528;2023-06-14T08:30:16;101329.88;;;22.69;39.30
76108;BME280;64834;52.516;10.528;2023-06-14T08:32:43;101334.47;;;22.77;39.12
76108;BME280;64834;52.516;10.528;2023-06-14T08:35:08;101334.38;;;22.71;38.46
76108;BME280;64834;52.516;10.528;2023-06-14T08:37:40;101334.22;;;22.12;38.49
76108;BME280;64834;52.516;10.528;2023-06-14T08:40:18;101338.22;;;22.35;38.16
76108;BME280;64834;52.516;10.528;2023-06-14T08:42:45;101344.22;;;22.24;38.48
76108;BME280;64834;52.516;10.528;2023-06-14T08:45:11;101340.56;;;22.19;38.79
76108;BME280;64834;52.516;10.528;2023-06-14T08:47:36;101339.56;;;22.12;39.14
76108;BME280;64834;52.516;10.528;2023-06-14T08:50:02;101336.75;;;22.06;38.66
76108;BME280;64834;52.516;10.528;2023-06-14T08:52:33;101337.41;;;22.40;39.26
76108;BME280;64834;52.516;10.528;2023-06-14T08:55:06;101331.56;;;22.12;38.85
76108;BME280;64834;52.516;10.528;2023-06-14T08:57:36;101339.47;;;22.07;39.85
76108;BME280;64834;52.516;10.528;2023-06-14T09:00:03;101335.81;;;22.04;40.17
76108;BME280;64834;52.516;10.528;2023-06-14T09:02:37;101337.88;;;22.67;40.06
76108;BME280;64834;52.516;10.528;2023-06-14T09:05:02;101337.97;;;22.22;39.43
76108;BME280;64834;52.516;10.528;2023-06-14T09:07:28;101336.19;;;22.72;39.39
76108;BME280;64834;52.516;10.528;2023-06-14T09:10:14;101336.97;;;22.17;39.86
76108;BME280;64834;52.516;10.528;2023-06-14T09:12:39;101328.94;;;22.64;39.65
76108;BME280;64834;52.516;10.528;2023-06-14T09:15:05;101335.13;;;22.62;38.70
76108;BME280;64834;52.516;10.528;2023-06-14T09:17:35;101323.63;;;22.65;39.17
76108;BME280;64834;52.516;10.528;2023-06-14T09:20:07;101321.88;;;23.25;38.18
76108;BME280;64834;52.516;10.528;2023-06-14T09:22:35;101319.88;;;23.10;38.19
76108;BME280;64834;52.516;10.528;2023-06-14T09:25:01;101319.00;;;23.11;38.17
76108;BME280;64834;52.516;10.528;2023-06-14T09:27:27;101327.59;;;22.90;38.02
76108;BME280;64834;52.516;10.528;2023-06-14T09:29:53;101330.31;;;22.93;38.29
76108;BME280;64834;52.516;10.528;2023-06-14T09:32:20;101332.69;;;22.76;39.20
76108;BME280;64834;52.516;10.528;2023-06-14T09:34:45;101331.03;;;22.84;39.00
76108;BME280;64834;52.516;10.528;2023-06-14T09:37:11;101327.34;;;23.35;38.89
76108;BME280;64834;52.516;10.528;2023-06-14T09:39:49;101342.94;;;23.67;37.63
76108;BME280;64834;52.516;10.528;2023-06-14T09:42:18;101335.63;;;23.54;37.84
76108;BME280;64834;52.516;10.528;2023-06-14T09:44:47;101328.91;;;23.86;37.00
76108;BME280;64834;52.516;10.528;2023-06-14T09:47:13;101323.22;;;23.57;38.54
76108;BME280;64834;52.516;10.528;2023-06-14T09:49:39;101315.38;;;23.71;38.22
76108;BME280;64834;52.516;10.528;2023-06-14T09:52:06;101318.00;;;23.65;38.36
76108;BME280;64834;52.516;10.528;2023-06-14T09:54:33;101309.50;;;24.01;38.18
76108;BME280;64834;52.516;10.528;2023-06-14T09:57:05;101310.56;;;24.20;37.85
76108;BME280;64834;52.516;10.528;2023-06-14T09:59:32;101314.81;;;24.00;38.19
76108;BME280;64834;52.516;10.528;2023-06-14T10:01:58;101319.50;;;23.45;39.20
76108;BME280;64834;52.516;10.528;2023-06-14T10:04:25;101321.22;;;23.44;39.25
76108;BME280;64834;52.516;10.528;2023-06-14T10:06:53;101319.78;;;23.04;40.59
76108;BME280;64834;52.516;10.528;2023-06-14T10:09:19;101325.41;;;22.66;41.49
76108;BME280;64834;52.516;10.528;2023-06-14T10:11:46;101324.69;;;22.76;42.10
76108;BME280;64834;52.516;10.528;2023-06-14T10:14:12;101320.94;;;22.64;42.04
76108;BME280;64834;52.516;10.528;2023-06-14T10:16:50;101320.75;;;22.06;42.37
76108;BME280;64834;52.516;10.528;2023-06-14T10:22:12;101318.22;;;22.62;41.67
76108;BME280;64834;52.516;10.528;2023-06-14T10:24:43;101305.84;;;22.67;40.77
76108;BME280;64834;52.516;10.528;2023-06-14T10:27:10;101306.69;;;22.63;41.60
76108;BME280;64834;52.516;10.528;2023-06-14T10:32:18;101313.19;;;22.26;41.69
76108;BME280;64834;52.516;10.528;2023-06-14T10:34:44;101313.88;;;22.17;41.69
76108;BME280;64834;52.516;10.528;2023-06-14T10:37:13;101316.53;;;22.16;42.25
76108;BME280;64834;52.516;10.528;2023-06-14T10:39:43;101314.19;;;22.34;41.95
76108;BME280;64834;52.516;10.528;2023-06-14T10:42:11;101303.63;;;22.40;41.88
76108;BME280;64834;52.516;10.528;2023-06-14T10:45:06;101303.72;;;22.45;41.25
76108;BME280;64834;52.516;10.528;2023-06-14T10:47:33;101298.53;;;22.54;41.89
76108;BME280;64834;52.516;10.528;2023-06-14T10:50:07;101292.59;;;22.72;41.41
76108;BME280;64834;52.516;10.528;2023-06-14T10:52:36;101290.63;;;22.61;41.39
76108;BME280;64834;52.516;10.528;2023-06-14T10:58:01;101298.00;;;22.76;40.79
76108;BME280;64834;52.516;10.528;2023-06-14T11:00:27;101297.41;;;22.40;40.43
76108;BME280;64834;52.516;10.528;2023-06-14T11:03:28;101295.34;;;22.25;40.84
76108;BME280;64834;52.516;10.528;2023-06-14T11:05:58;101296.16;;;22.19;41.34
76108;BME280;64834;52.516;10.528;2023-06-14T11:11:07;101290.72;;;22.68;40.34
76108;BME280;64834;52.516;10.528;2023-06-14T11:13:33;101285.00;;;22.96;39.86
76108;BME280;64834;52.516;10.528;2023-06-14T11:15:59;101285.06;;;23.01;39.73
76108;BME280;64834;52.516;10.528;2023-06-14T11:18:25;101283.31;;;23.03;38.84
76108;BME280;64834;52.516;10.528;2023-06-14T11:20:52;101286.91;;;23.06;38.88
76108;BME280;64834;52.516;10.528;2023-06-14T11:23:18;101283.16;;;22.94;39.24
76108;BME280;64834;52.516;10.528;2023-06-14T11:25:49;101280.47;;;22.94;39.63
76108;BME280;64834;52.516;10.528;2023-06-14T11:28:15;101274.22;;;22.88;39.64
76108;BME280;64834;52.516;10.528;2023-06-14T11:30:40;101266.31;;;22.98;39.56
76108;BME280;64834;52.516;10.528;2023-06-14T11:33:09;101274.59;;;23.19;38.63
76108;BME280;64834;52.516;10.528;2023-06-14T11:35:35;101276.69;;;23.41;38.62
76108;BME280;64834;52.516;10.528;2023-06-14T11:38:01;101266.94;;;23.45;37.74
76108;BME280;64834;52.516;10.528;2023-06-14T11:40:27;101266.31;;;22.99;37.92
76108;BME280;64834;52.516;10.528;2023-06-14T11:42:59;101258.19;;;22.88;38.43
76108;BME280;64834;52.516;10.528;2023-06-14T11:45:25;101274.91;;;23.40;37.90
76108;BME280;64834;52.516;10.528;2023-06-14T11:47:51;101264.69;;;23.79;36.96
76108;BME280;64834;52.516;10.528;2023-06-14T11:50:16;101249.84;;;24.13;36.32
76108;BME280;64834;52.516;10.528;2023-06-14T11:52:42;101254.94;;;23.84;35.97
76108;BME280;64834;52.516;10.528;2023-06-14T11:55:08;101249.91;;;23.35;37.43
76108;BME280;64834;52.516;10.528;2023-06-14T11:57:34;101254.28;;;23.32;37.87
76108;BME280;64834;52.516;10.528;2023-06-14T12:00:03;101252.63;;;23.38;37.63
76108;BME280;64834;52.516;10.528;2023-06-14T12:02:31;101255.31;;;23.41;38.00
76108;BME280;64834;52.516;10.528;2023-06-14T12:05:04;101247.69;;;23.72;37.31
76108;BME280;64834;52.516;10.528;2023-06-14T12:07:30;101239.03;;;24.01;36.83
76108;BME280;64834;52.516;10.528;2023-06-14T12:12:22;101229.41;;;24.19;34.91
76108;BME280;64834;52.516;10.528;2023-06-14T12:14:49;101237.84;;;23.69;35.83
76108;BME280;64834;52.516;10.528;2023-06-14T12:17:16;101246.56;;;23.53;36.22
76108;BME280;64834;52.516;10.528;2023-06-14T12:19:43;101242.09;;;23.54;37.51
76108;BME280;64834;52.516;10.528;2023-06-14T12:22:18;101243.84;;;23.50;36.81
76108;BME280;64834;52.516;10.528;2023-06-14T12:24:43;101238.47;;;23.49;36.50
76108;BME280;64834;52.516;10.528;2023-06-14T12:27:09;101235.81;;;23.49;35.44
76108;BME280;64834;52.516;10.528;2023-06-14T12:29:37;101247.28;;;23.40;37.37
76108;BME280;64834;52.516;10.528;2023-06-14T12:32:02;101244.72;;;23.48;37.35
76108;BME280;64834;52.516;10.528;2023-06-14T12:34:27;101230.09;;;23.18;37.77
76108;BME280;64834;52.516;10.528;2023-06-14T12:36:54;101237.44;;;23.36;36.10
76108;BME280;64834;52.516;10.528;2023-06-14T12:39:20;101233.50;;;23.78;34.46
76108;BME280;64834;52.516;10.528;2023-06-14T12:41:46;101228.56;;;24.22;33.91
76108;BME280;64834;52.516;10.528;2023-06-14T12:44:12;101225.19;;;24.43;33.78
76108;BME280;64834;52.516;10.528;2023-06-14T12:46:37;101227.91;;;24.49;32.72
76108;BME280;64834;52.516;10.528;2023-06-14T12:49:08;101226.25;;;24.65;33.51
76108;BME280;64834;52.516;10.528;2023-06-14T12:51:33;101227.56;;;24.11;34.13
76108;BME280;64834;52.516;10.528;2023-06-14T12:53:59;101236.25;;;23.88;34.69
76108;BME280;64834;52.516;10.528;2023-06-14T12:56:24;101229.88;;;23.74;36.22